createdAt,value
2023-04-15T08:44:01.510Z,99292.63
2023-04-15T08:46:05.759Z,99292.63
2023-04-15T08:48:16.626Z,99236.09
2023-04-15T08:50:20.627Z,99230.50
2023-04-15T08:52:27.204Z,99257.09
2023-04-15T08:54:30.413Z,99252.34
2023-04-15T08:56:33.544Z,99219.12
2023-04-15T08:58:37.208Z,99249.22
2023-04-15T09:00:41.623Z,99254.34
2023-04-15T09:02:45.030Z,99308.81
2023-04-15T09:04:48.229Z,99312.59
2023-04-15T09:06:52.462Z,99341.16
2023-04-15T09:08:58.814Z,99443.56
2023-04-15T09:11:03.509Z,99449.84
2023-04-15T09:13:07.653Z,99435.84
2023-04-15T09:15:14.077Z,99433.75
2023-04-15T09:17:22.802Z,99442.91
2023-04-15T09:19:25.791Z,99422.16
2023-04-15T09:21:32.138Z,99457.53
2023-04-15T09:23:36.409Z,99460.41
2023-04-15T09:25:44.626Z,99460.66
2023-04-15T09:27:55.875Z,99458.03
2023-04-15T09:29:59.688Z,99468.81
2023-04-15T09:32:17.076Z,99458.59
2023-04-15T09:34:22.867Z,99443.03
2023-04-15T09:36:30.214Z,99426.16
2023-04-15T09:38:34.662Z,99400.13
2023-04-15T09:40:41.532Z,99384.03
2023-04-15T09:42:58.342Z,99371.16
2023-04-15T09:45:13.442Z,99407.69
2023-04-15T09:47:32.541Z,99413.03
2023-04-15T09:49:56.913Z,99404.56
2023-04-15T09:52:06.557Z,99404.50
2023-04-15T09:54:17.387Z,99413.72
2023-04-15T09:58:42.915Z,99372.16
2023-04-15T10:00:49.328Z,99370.91
2023-04-15T10:02:53.954Z,99352.03
2023-04-15T10:04:58.648Z,99322.94
2023-04-15T10:07:25.149Z,99273.91
2023-04-15T10:09:34.920Z,99291.97
2023-04-15T10:11:41.639Z,99300.37
2023-04-15T10:13:51.439Z,99274.03
2023-04-15T10:16:12.972Z,99226.94
2023-04-15T10:18:20.824Z,99272.34
2023-04-15T10:20:24.961Z,99273.59
2023-04-15T10:22:29.074Z,99290.44
2023-04-15T10:24:36.480Z,99309.47
2023-04-15T10:26:39.537Z,99332.34
2023-04-15T10:28:45.497Z,99321.41
2023-04-15T10:30:49.869Z,99270.19
2023-04-15T10:32:53.883Z,99270.91
2023-04-15T10:34:58.401Z,99290.41
2023-04-15T10:37:04.979Z,99318.38
2023-04-15T10:39:43.965Z,99365.28
2023-04-15T10:42:13.304Z,99391.59
2023-04-15T10:44:17.094Z,99416.91
2023-04-15T10:46:44.133Z,99420.84
2023-04-15T10:48:55.298Z,99400.44
2023-04-15T10:51:02.810Z,99405.22
2023-04-15T10:53:06.620Z,99369.75
2023-04-15T10:55:26.432Z,99367.50
2023-04-15T10:57:39.209Z,99325.38
2023-04-15T11:00:18.820Z,99290.25
2023-04-15T11:03:10.902Z,99276.78
2023-04-15T11:05:42.145Z,99265.22
2023-04-15T11:07:55.429Z,99203.72
2023-04-15T11:09:58.403Z,99164.41
2023-04-15T11:12:08.972Z,99132.00
2023-04-15T11:14:16.795Z,99070.03
2023-04-15T11:16:20.622Z,99003.75
2023-04-15T11:18:31.390Z,98982.47
2023-04-15T11:20:35.538Z,99038.78
2023-04-15T11:22:39.549Z,99142.16
2023-04-15T11:24:52.467Z,99191.06
2023-04-15T11:27:02.635Z,99258.50
2023-04-15T11:29:07.362Z,99269.59
2023-04-15T11:31:18.725Z,99265.94
2023-04-15T11:33:24.753Z,99322.00
2023-04-15T11:35:29.840Z,99368.03
2023-04-15T11:37:32.851Z,99422.88
2023-04-15T11:39:38.136Z,99415.53
2023-04-15T11:41:45.464Z,99454.81
2023-04-15T11:43:52.150Z,99493.44
2023-04-15T11:46:22.566Z,99519.72
2023-04-15T11:48:36.741Z,99516.88
2023-04-15T11:50:42.760Z,99472.16
2023-04-15T11:53:02.312Z,99480.75
2023-04-15T11:55:06.001Z,99488.66
2023-04-15T11:57:11.349Z,99511.31
2023-04-15T11:59:15.098Z,99522.72
2023-04-15T12:01:19.822Z,99526.56
2023-04-15T12:03:35.354Z,99543.97
2023-04-15T12:06:18.174Z,99551.25
2023-04-15T12:08:24.272Z,99519.56
2023-04-15T12:10:28.466Z,99499.69
2023-04-15T12:12:31.967Z,99495.44
2023-04-15T12:14:41.207Z,99486.03
2023-04-15T12:16:52.718Z,99535.75
2023-04-15T12:18:59.287Z,99584.97
2023-04-15T12:21:20.627Z,99588.41
2023-04-15T12:23:27.381Z,99604.66
2023-04-15T12:25:41.252Z,99599.84
2023-04-15T12:27:53.027Z,99592.22
2023-04-15T12:30:12.248Z,99594.03
2023-04-15T12:32:25.206Z,99592.47
2023-04-15T12:34:41.274Z,99557.16
2023-04-15T12:37:00.210Z,99545.06
2023-04-15T12:39:30.902Z,99550.53
2023-04-15T12:41:38.849Z,99549.78
2023-04-15T12:43:44.680Z,99558.34
2023-04-15T12:45:48.861Z,99538.00
2023-04-15T12:47:55.059Z,99509.38
2023-04-15T12:50:01.833Z,99491.34
2023-04-15T12:52:07.428Z,99454.50
2023-04-15T12:54:12.116Z,99429.00
2023-04-15T12:56:23.457Z,99427.88
2023-04-15T12:58:35.377Z,99442.34
2023-04-15T13:00:43.988Z,99415.63
2023-04-15T13:02:59.980Z,99406.22
2023-04-15T13:05:05.870Z,99414.09
2023-04-15T13:07:17.992Z,99422.28
2023-04-15T13:09:24.116Z,99459.00
2023-04-15T13:11:34.251Z,99453.13
2023-04-15T13:13:38.848Z,99455.41
2023-04-15T13:16:07.623Z,99479.94
2023-04-15T13:18:12.008Z,99480.69
2023-04-15T13:20:15.654Z,99475.03
2023-04-15T13:22:19.882Z,99453.06
2023-04-15T13:24:23.643Z,99456.84
2023-04-15T13:26:50.524Z,99445.13
2023-04-15T13:29:01.385Z,99461.53
2023-04-15T13:31:08.890Z,99457.53
2023-04-15T13:33:15.667Z,99454.09
2023-04-15T13:35:46.902Z,99463.25
2023-04-15T13:37:51.880Z,99502.06
2023-04-15T13:39:55.762Z,99512.84
2023-04-15T13:41:59.912Z,99538.25
2023-04-15T13:44:23.348Z,99521.53
2023-04-15T13:46:28.592Z,99499.94
2023-04-15T13:48:35.102Z,99505.44
2023-04-15T13:50:45.791Z,99503.28
2023-04-15T13:52:48.849Z,99506.09
2023-04-15T13:55:08.613Z,99490.78
2023-04-15T13:57:26.700Z,99497.53
2023-04-15T13:59:31.446Z,99485.13
2023-04-15T14:01:56.253Z,99470.59
2023-04-15T14:04:23.207Z,99439.25
2023-04-15T14:06:35.344Z,99441.09
2023-04-15T14:08:38.456Z,99486.22
2023-04-15T14:10:44.439Z,99520.03
2023-04-15T14:12:50.727Z,99578.00
2023-04-15T14:14:57.641Z,99579.28
2023-04-15T14:17:05.724Z,99582.09
2023-04-15T14:19:12.567Z,99595.31
2023-04-15T14:21:19.291Z,99597.09
2023-04-15T14:23:52.110Z,99585.62
2023-04-15T14:26:25.500Z,99571.94
2023-04-15T14:28:31.068Z,99533.12
2023-04-15T14:30:57.296Z,99504.63
2023-04-15T14:33:21.085Z,99488.47
2023-04-15T14:35:27.278Z,99441.75
2023-04-15T14:37:30.544Z,99414.31
2023-04-15T14:39:33.617Z,99402.53
2023-04-15T14:41:38.813Z,99388.72
2023-04-15T14:43:48.455Z,99382.75
2023-04-15T14:45:52.310Z,99389.38
2023-04-15T14:47:56.121Z,99397.00
2023-04-15T14:50:01.064Z,99405.34
2023-04-15T14:52:04.626Z,99420.75
2023-04-15T14:54:09.232Z,99409.44
2023-04-15T14:56:21.574Z,99416.69
2023-04-15T14:58:25.380Z,99433.59
2023-04-15T15:00:30.901Z,99447.34
2023-04-15T15:02:58.756Z,99437.22
2023-04-15T15:05:06.865Z,99429.84
2023-04-15T15:07:10.452Z,99414.59
2023-04-15T15:09:13.292Z,99431.50
2023-04-15T15:11:17.406Z,99455.94
2023-04-15T15:13:20.963Z,99458.06
2023-04-15T15:17:28.558Z,99479.59
2023-04-15T15:19:31.826Z,99490.31
2023-04-15T15:21:35.364Z,99502.59
2023-04-15T15:23:38.699Z,99509.91
2023-04-15T15:25:42.888Z,99524.56
2023-04-15T15:27:45.676Z,99522.16
2023-04-15T15:29:49.393Z,99523.50
2023-04-15T15:31:53.380Z,99515.41
2023-04-15T15:33:59.719Z,99517.16
2023-04-15T15:36:04.449Z,99506.19
2023-04-15T15:40:26.439Z,99498.00
2023-04-15T15:42:33.174Z,99503.47
2023-04-15T15:44:38.954Z,99501.44
2023-04-15T15:46:42.416Z,99488.16
2023-04-15T15:48:47.914Z,99469.69
2023-04-15T15:50:52.928Z,99461.78
2023-04-15T15:52:57.404Z,99444.72
2023-04-15T15:55:21.879Z,99437.09
2023-04-15T15:57:31.859Z,99442.50
2023-04-15T15:59:36.910Z,99429.00
2023-04-15T16:01:41.909Z,99396.59
2023-04-15T16:03:50.168Z,99365.62
2023-04-15T16:05:55.002Z,99339.88
2023-04-15T16:10:23.093Z,99278.66
2023-04-15T16:14:55.937Z,99104.56
2023-04-15T16:17:03.507Z,98987.81
2023-04-15T16:19:09.100Z,98872.25
2023-04-15T16:21:22.587Z,98761.47
2023-04-15T16:23:48.255Z,98714.06
2023-04-15T16:25:53.197Z,98597.00
2023-04-15T16:28:08.472Z,98564.12
2023-04-15T16:30:23.472Z,98564.25
2023-04-15T16:32:32.383Z,98555.94
2023-04-15T16:34:39.353Z,98535.94
2023-04-15T16:36:44.436Z,98507.34
2023-04-15T16:39:12.869Z,98520.81
2023-04-15T16:41:18.069Z,98558.44
2023-04-15T16:43:36.925Z,98579.91
2023-04-15T16:45:40.841Z,98603.31
2023-04-15T16:47:44.037Z,98598.72
2023-04-15T16:49:48.057Z,98634.63
2023-04-15T16:51:51.184Z,98644.31
2023-04-15T16:53:59.962Z,98669.56
2023-04-15T16:56:22.644Z,98683.22
2023-04-15T16:58:46.763Z,98693.38
2023-04-15T17:00:52.036Z,98698.97
2023-04-15T17:02:57.675Z,98686.25
2023-04-15T17:05:09.003Z,98670.97
2023-04-15T17:07:33.496Z,98685.47
2023-04-15T17:09:41.983Z,98681.13
2023-04-15T17:11:47.030Z,98676.50
2023-04-15T17:13:55.537Z,98676.69
2023-04-15T17:15:58.923Z,98645.69
2023-04-15T17:18:32.007Z,98619.38
2023-04-15T17:20:42.307Z,98585.81
2023-04-15T17:22:56.649Z,98562.56
2023-04-15T17:24:59.957Z,98533.44
2023-04-15T17:27:05.297Z,98516.91
2023-04-15T17:29:14.765Z,98505.56
2023-04-15T17:31:38.454Z,98449.09
2023-04-15T17:34:01.812Z,98422.19
2023-04-15T17:36:07.851Z,98407.34
2023-04-15T17:38:11.532Z,98413.38
2023-04-15T17:40:15.204Z,98404.38
2023-04-15T17:42:21.114Z,98411.41
2023-04-15T17:44:25.340Z,98414.22
2023-04-15T17:46:33.156Z,98416.97
2023-04-15T17:48:38.678Z,98416.72
2023-04-15T17:50:46.780Z,98431.78
2023-04-15T17:52:53.862Z,98459.75
2023-04-15T17:54:57.376Z,98466.72
2023-04-15T17:57:04.552Z,98477.16
2023-04-15T17:59:10.250Z,98470.69
2023-04-15T18:01:28.937Z,98464.28
2023-04-15T18:03:44.733Z,98467.72
2023-04-15T18:05:48.106Z,98464.31
2023-04-15T18:07:52.947Z,98465.38
2023-04-15T18:09:56.947Z,98452.44
2023-04-15T18:12:01.066Z,98451.38
2023-04-15T18:14:06.268Z,98435.50
2023-04-15T18:16:11.589Z,98441.66
2023-04-15T18:18:26.491Z,98434.91
2023-04-15T18:20:34.330Z,98427.19
2023-04-15T18:22:39.159Z,98419.09
2023-04-15T18:24:43.970Z,98429.38
2023-04-15T18:26:49.102Z,98439.69
2023-04-15T18:28:59.985Z,98441.38
2023-04-15T18:33:23.149Z,98467.72
2023-04-15T18:35:33.720Z,98479.09
2023-04-15T18:37:37.930Z,98487.16
2023-04-15T18:39:41.258Z,98485.38
2023-04-15T18:41:46.790Z,98486.91
2023-04-15T18:43:51.825Z,98503.16
2023-04-15T18:45:55.736Z,98515.97
2023-04-15T18:47:59.485Z,98518.44
2023-04-15T18:50:05.541Z,98535.03
2023-04-15T18:52:14.524Z,98535.63
2023-04-15T18:54:18.222Z,98544.63
2023-04-15T18:56:22.164Z,98555.78
2023-04-15T18:58:26.855Z,98567.25
2023-04-15T19:00:37.528Z,98567.63
2023-04-15T19:02:47.674Z,98574.13
2023-04-15T19:04:51.729Z,98581.59
2023-04-15T19:06:55.818Z,98595.22
2023-04-15T19:08:59.621Z,98603.81
2023-04-15T19:11:03.302Z,98605.28
2023-04-15T19:13:07.768Z,98612.47
2023-04-15T19:15:11.478Z,98621.03
2023-04-15T19:17:18.005Z,98623.25
2023-04-15T19:19:22.177Z,98634.44
2023-04-15T19:21:28.777Z,98654.31
2023-04-15T19:23:32.796Z,98656.00
2023-04-15T19:25:38.018Z,98667.81
2023-04-15T19:27:43.467Z,98673.41
2023-04-15T19:29:49.610Z,98689.87
2023-04-15T19:31:53.396Z,98715.09
2023-04-15T19:33:58.052Z,98723.34
2023-04-15T19:36:03.564Z,98739.94
2023-04-15T19:38:07.654Z,98749.59
2023-04-15T19:40:14.424Z,98747.59
2023-04-15T19:42:19.275Z,98739.41
2023-04-15T19:44:22.814Z,98737.66
2023-04-15T19:46:27.697Z,98750.75
2023-04-15T19:48:31.644Z,98736.91
2023-04-15T19:50:39.509Z,98741.41
2023-04-15T19:52:45.066Z,98740.09
2023-04-15T19:54:48.118Z,98734.47
2023-04-15T19:56:52.283Z,98747.03
2023-04-15T19:58:57.488Z,98748.75
2023-04-15T20:01:23.746Z,98765.31
2023-04-15T20:03:50.223Z,98791.53
2023-04-15T20:05:53.839Z,98803.72
2023-04-15T20:07:59.754Z,98817.09
2023-04-15T20:10:03.302Z,98829.19
2023-04-15T20:12:51.114Z,98809.06
2023-04-15T20:14:38.371Z,98830.75
2023-04-15T20:16:43.218Z,98831.31
2023-04-15T20:19:12.655Z,98814.84
2023-04-15T20:21:19.457Z,98791.31
2023-04-15T20:23:46.587Z,98796.75
2023-04-15T20:25:56.333Z,98808.97
2023-04-15T20:28:02.387Z,98808.25
2023-04-15T20:30:08.860Z,98789.13
2023-04-15T20:32:13.057Z,98803.84
2023-04-15T20:34:16.412Z,98814.78
2023-04-15T20:36:22.635Z,98834.16
2023-04-15T20:38:28.195Z,98843.34
2023-04-15T20:40:34.190Z,98826.44
2023-04-15T20:42:38.654Z,98828.84
2023-04-15T20:44:44.135Z,98818.63
2023-04-15T20:46:48.177Z,98816.97
2023-04-15T20:48:53.759Z,98812.66
2023-04-15T20:50:56.810Z,98819.19
2023-04-15T20:53:04.848Z,98818.63
2023-04-15T20:55:09.661Z,98814.09
2023-04-15T20:57:13.344Z,98828.84
2023-04-15T20:59:18.536Z,98854.41
2023-04-15T21:01:44.176Z,98875.41
2023-04-15T21:03:47.729Z,98899.22
2023-04-15T21:05:50.589Z,98915.19
2023-04-15T21:07:54.762Z,98905.25
2023-04-15T21:09:58.604Z,98926.63
2023-04-15T21:12:02.354Z,98935.09
2023-04-15T21:14:09.475Z,98940.63
2023-04-15T21:16:12.464Z,98948.28
2023-04-15T21:18:18.217Z,98965.50
2023-04-15T21:20:21.803Z,98973.84
2023-04-15T21:22:24.892Z,98976.47
2023-04-15T21:24:28.020Z,98972.31
2023-04-15T21:26:31.476Z,98977.31
2023-04-15T21:28:34.681Z,98982.63
2023-04-15T21:30:37.549Z,98973.47
2023-04-15T21:32:43.295Z,98969.19
2023-04-15T21:34:46.085Z,98955.00
2023-04-15T21:36:48.740Z,98953.66
2023-04-15T21:38:51.775Z,98949.72
2023-04-15T21:40:55.386Z,98944.59
2023-04-15T21:42:58.383Z,98943.66
2023-04-15T21:45:02.220Z,98949.09
2023-04-15T21:47:05.004Z,98946.25
2023-04-15T21:49:08.521Z,98962.63
2023-04-15T21:51:11.761Z,98956.59
2023-04-15T21:53:14.341Z,98965.75
2023-04-15T21:55:18.361Z,98965.84
2023-04-15T21:57:21.424Z,98973.06
2023-04-15T21:59:28.718Z,98965.31
2023-04-15T22:01:32.975Z,98960.75
2023-04-15T22:03:36.504Z,98966.75
2023-04-15T22:05:40.058Z,98979.16
2023-04-15T22:07:43.473Z,98990.66
2023-04-15T22:09:51.653Z,98997.13
2023-04-15T22:11:54.203Z,98997.75
2023-04-15T22:13:58.591Z,99002.56
2023-04-15T22:16:23.901Z,98999.44
2023-04-15T22:18:29.446Z,98999.94
2023-04-15T22:21:02.618Z,98992.03
2023-04-15T22:23:10.146Z,98977.94
2023-04-15T22:25:12.874Z,98969.94
2023-04-15T22:27:16.971Z,98963.16
2023-04-15T22:29:20.095Z,98947.72
2023-04-15T22:31:23.381Z,98919.81
2023-04-15T22:33:31.037Z,98892.31
2023-04-15T22:35:34.762Z,98873.03
2023-04-15T22:37:38.180Z,98879.41
2023-04-15T22:39:42.359Z,98875.41
2023-04-15T22:41:47.803Z,98867.69
2023-04-15T22:43:52.121Z,98871.72
2023-04-15T22:45:57.269Z,98879.66
2023-04-15T22:48:22.374Z,98874.25
2023-04-15T22:50:25.228Z,98887.19
2023-04-15T22:52:31.455Z,98877.38
2023-04-15T22:54:35.048Z,98872.63
2023-04-15T22:56:38.046Z,98875.53
2023-04-15T22:58:43.697Z,98854.41
2023-04-15T23:00:46.759Z,98862.09
2023-04-15T23:02:51.014Z,98857.09
2023-04-15T23:04:58.227Z,98848.13
2023-04-15T23:07:04.399Z,98836.25
2023-04-15T23:09:09.185Z,98834.81
2023-04-15T23:11:15.194Z,98833.53
2023-04-15T23:13:17.977Z,98835.22
2023-04-15T23:15:20.749Z,98832.81
2023-04-15T23:17:24.222Z,98822.22
2023-04-15T23:19:27.293Z,98829.09
2023-04-15T23:21:29.949Z,98832.28
2023-04-15T23:23:33.103Z,98825.53
